Time,TemperatureF,DewpointF,PressureIn,WindDirection,WindDirectionDegrees,WindSpeedMPH,WindSpeedGustMPH,Humidity,HourlyPrecipIn,Conditions,Clouds,dailyrainin,SoftwareType,DateUTC
2013-03-18 00:02:00,24.0,14.0,-100.00,SE,141,3.0,4.0,66,0.00,,,-99.99,,2013-03-18 06:02:00,
2013-03-18 00:12:00,24.0,14.0,-100.00,SE,141,3.0,4.0,66,0.00,,,-99.99,,2013-03-18 06:12:00,
2013-03-18 00:22:00,24.0,15.0,-100.00,SSW,205,1.0,3.0,67,0.00,,,-99.99,,2013-03-18 06:22:00,
2013-03-18 00:32:00,24.0,15.0,-100.00,SSW,205,1.0,3.0,67,0.00,,,-99.99,,2013-03-18 06:32:00,
2013-03-18 00:42:00,24.0,14.0,-100.00,ESE,114,3.0,5.0,65,0.00,,,-99.99,,2013-03-18 06:42:00,
2013-03-18 00:52:00,24.0,13.0,-100.00,ENE,66,1.0,2.0,64,0.00,,,-99.99,,2013-03-18 06:52:00,
2013-03-18 01:01:00,24.0,13.0,-100.00,ENE,66,1.0,2.0,64,0.00,,,-99.99,,2013-03-18 07:01:00,
2013-03-18 01:12:00,24.0,13.0,-100.00,East,79,0.0,1.0,63,0.00,,,-99.99,,2013-03-18 07:12:00,
2013-03-18 01:22:00,24.0,13.0,-100.00,East,79,0.0,1.0,63,0.00,,,-99.99,,2013-03-18 07:22:00,
2013-03-18 01:31:00,24.0,13.0,-100.00,East,79,0.0,1.0,63,0.00,,,-99.99,,2013-03-18 07:31:00,
2013-03-18 01:42:00,23.0,14.0,-100.00,ESE,117,4.0,4.0,68,0.00,,,-99.99,,2013-03-18 07:42:00,
2013-03-18 01:52:00,23.0,13.0,-100.00,East,95,2.0,3.0,66,0.00,,,-99.99,,2013-03-18 07:52:00,
2013-03-18 02:02:00,23.0,13.0,-100.00,East,95,2.0,3.0,66,0.00,,,-99.99,,2013-03-18 08:02:00,
2013-03-18 02:11:00,23.0,14.0,-100.00,North,3,1.0,2.0,66,0.00,,,-99.99,,2013-03-18 08:11:00,
2013-03-18 02:22:00,22.0,13.0,-100.00,East,95,2.0,4.0,68,0.00,,,-99.99,,2013-03-18 08:22:00,
2013-03-18 02:32:00,22.0,13.0,-100.00,East,95,2.0,4.0,68,0.00,,,-99.99,,2013-03-18 08:32:00,
2013-03-18 02:42:00,22.0,14.0,-100.00,East,89,2.0,3.0,70,0.00,,,-99.99,,2013-03-18 08:42:00,
2013-03-18 02:52:00,22.0,13.0,-100.00,SE,124,3.0,5.0,69,0.00,,,-99.99,,2013-03-18 08:52:00,
2013-03-18 03:01:00,22.0,13.0,-100.00,SE,124,3.0,5.0,69,0.00,,,-99.99,,2013-03-18 09:01:00,
2013-03-18 03:12:00,21.0,14.0,-100.00,ESE,107,2.0,3.0,72,0.00,,,-99.99,,2013-03-18 09:12:00,
2013-03-18 03:22:00,21.0,14.0,-100.00,ESE,107,2.0,3.0,72,0.00,,,-99.99,,2013-03-18 09:22:00,
2013-03-18 03:32:00,21.0,14.0,-100.00,ESE,107,2.0,3.0,72,0.00,,,-99.99,,2013-03-18 09:32:00,
2013-03-18 03:42:00,22.0,14.0,-100.00,ESE,106,1.0,2.0,73,0.00,,,-99.99,,2013-03-18 09:42:00,
2013-03-18 03:53:00,22.0,14.0,-100.00,SE,124,2.0,3.0,73,0.00,,,-99.99,,2013-03-18 09:53:00,
2013-03-18 04:03:00,22.0,14.0,-100.00,SE,124,2.0,3.0,73,0.00,,,-99.99,,2013-03-18 10:03:00,
2013-03-18 04:12:00,22.0,14.0,-100.00,ESE,113,4.0,6.0,71,0.00,,,-99.99,,2013-03-18 10:12:00,
2013-03-18 04:23:00,22.0,14.0,-100.00,ESE,117,4.0,5.0,71,0.00,,,-99.99,,2013-03-18 10:23:00,
2013-03-18 04:32:00,22.0,14.0,-100.00,ESE,117,4.0,5.0,71,0.00,,,-99.99,,2013-03-18 10:32:00,
2013-03-18 04:42:00,22.0,14.0,-100.00,ESE,117,4.0,5.0,71,0.00,,,-99.99,,2013-03-18 10:42:00,
2013-03-18 04:53:00,22.0,14.0,-100.00,ESE,107,4.0,5.0,73,0.00,,,-99.99,,2013-03-18 10:53:00,
2013-03-18 05:02:00,22.0,14.0,-100.00,ESE,107,4.0,5.0,73,0.00,,,-99.99,,2013-03-18 11:02:00,
2013-03-18 05:12:00,22.0,14.0,-100.00,ESE,104,4.0,6.0,70,0.00,,,-99.99,,2013-03-18 11:12:00,
2013-03-18 05:22:00,23.0,14.0,-100.00,ESE,114,2.0,4.0,69,0.00,,,-99.99,,2013-03-18 11:22:00,
2013-03-18 05:31:00,23.0,14.0,-100.00,ESE,114,2.0,4.0,69,0.00,,,-99.99,,2013-03-18 11:31:00,
2013-03-18 05:42:00,23.0,15.0,-100.00,SW,236,1.0,2.0,71,0.00,,,-99.99,,2013-03-18 11:42:00,
2013-03-18 05:52:00,23.0,15.0,-100.00,SW,236,1.0,2.0,71,0.00,,,-99.99,,2013-03-18 11:52:00,
2013-03-18 06:01:00,23.0,15.0,-100.00,SW,236,1.0,2.0,71,0.00,,,-99.99,,2013-03-18 12:01:00,
2013-03-18 06:12:00,24.0,17.0,-100.00,West,264,2.0,3.0,73,0.00,,,-99.99,,2013-03-18 12:12:00,
2013-03-18 06:22:00,24.0,17.0,-100.00,SW,233,1.0,2.0,72,0.00,,,-99.99,,2013-03-18 12:22:00,
2013-03-18 06:32:00,24.0,17.0,-100.00,SW,233,1.0,2.0,72,0.00,,,-99.99,,2013-03-18 12:32:00,
2013-03-18 06:42:00,25.0,17.0,-100.00,SW,216,0.0,1.0,72,0.00,,,-99.99,,2013-03-18 12:42:00,
2013-03-18 06:52:00,25.0,17.0,-100.00,North,354,0.0,2.0,71,0.00,,,-99.99,,2013-03-18 12:52:00,
2013-03-18 07:02:00,25.0,17.0,-100.00,North,354,0.0,2.0,71,0.00,,,-99.99,,2013-03-18 13:02:00,
2013-03-18 07:12:00,25.0,17.0,-100.00,North,354,0.0,2.0,71,0.00,,,-99.99,,2013-03-18 13:12:00,
2013-03-18 07:22:00,24.0,16.0,-100.00,ESE,106,4.0,6.0,73,0.00,,,-99.99,,2013-03-18 13:22:00,
2013-03-18 07:32:00,24.0,16.0,-100.00,ESE,106,4.0,6.0,73,0.00,,,-99.99,,2013-03-18 13:32:00,
2013-03-18 07:42:00,23.0,16.0,-100.00,ESE,121,3.0,6.0,73,0.00,,,-99.99,,2013-03-18 13:42:00,
2013-03-18 07:52:00,23.0,16.0,-100.00,ESE,116,4.0,5.0,72,0.00,,,-99.99,,2013-03-18 13:52:00,
2013-03-18 08:02:00,23.0,16.0,-100.00,ESE,116,4.0,5.0,72,0.00,,,-99.99,,2013-03-18 14:02:00,
2013-03-18 08:12:00,23.0,16.0,-100.00,ESE,116,4.0,5.0,72,0.00,,,-99.99,,2013-03-18 14:12:00,
2013-03-18 08:22:00,23.0,16.0,-100.00,ESE,119,3.0,6.0,73,0.00,,,-99.99,,2013-03-18 14:22:00,
2013-03-18 08:32:00,23.0,16.0,-100.00,ESE,119,3.0,6.0,73,0.00,,,-99.99,,2013-03-18 14:32:00,
2013-03-18 08:42:00,23.0,17.0,-100.00,ESE,113,4.0,5.0,78,0.00,,,-99.99,,2013-03-18 14:42:00,
2013-03-18 08:52:00,23.0,18.0,-100.00,East,99,5.0,7.0,79,0.00,,,-99.99,,2013-03-18 14:52:00,
2013-03-18 09:02:00,23.0,18.0,-100.00,East,99,5.0,7.0,79,0.00,,,-99.99,,2013-03-18 15:02:00,
2013-03-18 09:12:00,23.0,18.0,-100.00,East,99,5.0,7.0,79,0.00,,,-99.99,,2013-03-18 15:12:00,
2013-03-18 09:22:00,23.0,19.0,-100.00,ESE,110,5.0,9.0,84,0.00,,,-99.99,,2013-03-18 15:22:00,
2013-03-18 09:33:00,23.0,19.0,-100.00,ESE,110,5.0,9.0,84,0.00,,,-99.99,,2013-03-18 15:33:00,
2013-03-18 09:43:00,23.0,19.0,-100.00,ESE,116,6.0,10.0,85,0.00,,,-99.99,,2013-03-18 15:43:00,
2013-03-18 09:52:00,23.0,20.0,-100.00,ESE,102,5.0,8.0,86,0.00,,,-99.99,,2013-03-18 15:52:00,
2013-03-18 10:02:00,23.0,20.0,-100.00,ESE,102,5.0,8.0,86,0.00,,,-99.99,,2013-03-18 16:02:00,
2013-03-18 10:12:00,24.0,20.0,-100.00,SE,127,5.0,9.0,85,0.00,,,-99.99,,2013-03-18 16:12:00,
2013-03-18 10:22:00,24.0,20.0,-100.00,SE,127,5.0,9.0,85,0.00,,,-99.99,,2013-03-18 16:22:00,
2013-03-18 10:32:00,24.0,20.0,-100.00,SE,127,5.0,9.0,85,0.00,,,-99.99,,2013-03-18 16:32:00,
2013-03-18 10:42:00,24.0,20.0,-100.00,ESE,106,4.0,7.0,85,0.00,,,-99.99,,2013-03-18 16:42:00,
2013-03-18 10:52:00,25.0,21.0,-100.00,East,99,4.0,6.0,85,0.04,,,-99.99,,2013-03-18 16:52:00,
2013-03-18 11:02:00,25.0,21.0,-100.00,East,99,4.0,6.0,85,0.04,,,-99.99,,2013-03-18 17:02:00,
2013-03-18 11:12:00,26.0,21.0,-100.00,SE,144,1.0,2.0,85,0.20,,,-99.99,,2013-03-18 17:12:00,
2013-03-18 11:22:00,25.0,21.0,-100.00,ESE,117,3.0,5.0,84,0.00,,,-99.99,,2013-03-18 17:22:00,
2013-03-18 11:32:00,25.0,21.0,-100.00,ESE,117,3.0,5.0,84,0.00,,,-99.99,,2013-03-18 17:32:00,
2013-03-18 11:42:00,25.0,21.0,-100.00,ESE,117,3.0,5.0,84,0.00,,,-99.99,,2013-03-18 17:42:00,
2013-03-18 11:52:00,27.0,21.0,-100.00,SE,131,3.0,5.0,80,0.00,,,-99.99,,2013-03-18 17:52:00,
2013-03-18 12:02:00,27.0,21.0,-100.00,SE,131,3.0,5.0,80,0.00,,,-99.99,,2013-03-18 18:02:00,
2013-03-18 12:12:00,27.0,21.0,-100.00,SE,131,3.0,5.0,80,0.00,,,-99.99,,2013-03-18 18:12:00,
2013-03-18 12:22:00,28.0,20.0,-100.00,NNW,342,2.0,4.0,71,0.04,,,-99.99,,2013-03-18 18:22:00,
2013-03-18 12:32:00,28.0,20.0,-100.00,NNW,342,2.0,4.0,71,0.04,,,-99.99,,2013-03-18 18:32:00,
2013-03-18 12:42:00,29.0,20.0,-100.00,South,185,1.0,3.0,68,0.00,,,-99.99,,2013-03-18 18:42:00,
2013-03-18 12:52:00,30.0,19.0,-100.00,WSW,251,2.0,3.0,63,0.00,,,-99.99,,2013-03-18 18:52:00,
2013-03-18 13:02:00,30.0,19.0,-100.00,WSW,251,2.0,3.0,63,0.00,,,-99.99,,2013-03-18 19:02:00,
2013-03-18 13:12:00,29.0,17.0,-100.00,SSE,148,2.0,4.0,59,0.00,,,-99.99,,2013-03-18 19:12:00,
2013-03-18 13:22:00,30.0,18.0,-100.00,SSW,202,2.0,5.0,61,0.00,,,-99.99,,2013-03-18 19:22:00,
2013-03-18 13:32:00,30.0,18.0,-100.00,SSW,202,2.0,5.0,61,0.00,,,-99.99,,2013-03-18 19:32:00,
2013-03-18 13:42:00,30.0,18.0,-100.00,WNW,294,2.0,4.0,58,0.00,,,-99.99,,2013-03-18 19:42:00,
2013-03-18 13:52:00,30.0,18.0,-100.00,South,185,3.0,6.0,59,0.00,,,-99.99,,2013-03-18 19:52:00,
2013-03-18 14:02:00,30.0,18.0,-100.00,South,185,3.0,6.0,59,0.00,,,-99.99,,2013-03-18 20:02:00,
2013-03-18 14:12:00,30.0,17.0,-100.00,SE,131,4.0,6.0,56,0.00,,,-99.99,,2013-03-18 20:12:00,
2013-03-18 14:22:00,31.0,18.0,-100.00,SSW,213,2.0,5.0,58,0.00,,,-99.99,,2013-03-18 20:22:00,
2013-03-18 14:32:00,31.0,18.0,-100.00,SSW,213,2.0,5.0,58,0.00,,,-99.99,,2013-03-18 20:32:00,
2013-03-18 14:42:00,33.0,17.0,-100.00,SSW,213,1.0,3.0,51,0.00,,,-99.99,,2013-03-18 20:42:00,
2013-03-18 14:52:00,33.0,15.0,-100.00,SW,216,2.0,4.0,49,0.00,,,-99.99,,2013-03-18 20:52:00,
2013-03-18 15:02:00,33.0,15.0,-100.00,SW,216,2.0,4.0,49,0.00,,,-99.99,,2013-03-18 21:02:00,
2013-03-18 15:11:00,33.0,19.0,-100.00,WSW,244,2.0,3.0,56,0.00,,,-99.99,,2013-03-18 21:11:00,
2013-03-18 15:22:00,34.0,19.0,-100.00,WSW,246,2.0,4.0,53,0.00,,,-99.99,,2013-03-18 21:22:00,
2013-03-18 15:32:00,34.0,19.0,-100.00,WSW,246,2.0,4.0,53,0.00,,,-99.99,,2013-03-18 21:32:00,
2013-03-18 15:42:00,36.0,17.0,-100.00,SW,232,4.0,9.0,45,0.00,,,-99.99,,2013-03-18 21:42:00,
2013-03-18 15:53:00,34.0,15.0,-100.00,SSW,196,4.0,7.0,46,0.00,,,-99.99,,2013-03-18 21:53:00,
2013-03-18 16:03:00,34.0,15.0,-100.00,SSW,196,4.0,7.0,46,0.00,,,-99.99,,2013-03-18 22:03:00,
2013-03-18 16:12:00,35.0,17.0,-100.00,WSW,253,3.0,6.0,48,0.00,,,-99.99,,2013-03-18 22:12:00,
2013-03-18 16:22:00,35.0,15.0,-100.00,SSW,193,3.0,4.0,43,0.00,,,-99.99,,2013-03-18 22:22:00,
2013-03-18 16:32:00,35.0,15.0,-100.00,SSW,193,3.0,4.0,43,0.00,,,-99.99,,2013-03-18 22:32:00,
2013-03-18 16:42:00,35.0,15.0,-100.00,WSW,254,2.0,3.0,45,0.00,,,-99.99,,2013-03-18 22:42:00,
2013-03-18 16:52:00,35.0,14.0,-100.00,SW,229,2.0,4.0,41,0.00,,,-99.99,,2013-03-18 22:52:00,
2013-03-18 17:02:00,35.0,14.0,-100.00,SW,229,2.0,4.0,41,0.00,,,-99.99,,2013-03-18 23:02:00,
2013-03-18 17:12:00,34.0,15.0,-100.00,SSE,151,2.0,4.0,45,0.00,,,-99.99,,2013-03-18 23:12:00,
2013-03-18 17:22:00,35.0,17.0,-100.00,WSW,250,2.0,5.0,46,0.00,,,-99.99,,2013-03-18 23:22:00,
2013-03-18 17:32:00,35.0,17.0,-100.00,WSW,250,2.0,5.0,46,0.00,,,-99.99,,2013-03-18 23:32:00,
2013-03-18 17:42:00,36.0,16.0,-100.00,West,263,3.0,5.0,44,0.00,,,-99.99,,2013-03-18 23:42:00,
2013-03-18 17:53:00,36.0,18.0,-100.00,WNW,301,2.0,4.0,48,0.00,,,-99.99,,2013-03-18 23:53:00,
2013-03-18 18:02:00,36.0,18.0,-100.00,WNW,301,2.0,4.0,48,0.00,,,-99.99,,2013-03-19 00:02:00,
2013-03-18 18:12:00,35.0,16.0,-100.00,SW,230,2.0,7.0,45,0.00,,,-99.99,,2013-03-19 00:12:00,
2013-03-18 18:22:00,35.0,17.0,-100.00,WSW,256,2.0,6.0,48,0.00,,,-99.99,,2013-03-19 00:22:00,
2013-03-18 18:32:00,35.0,17.0,-100.00,WSW,256,2.0,6.0,48,0.00,,,-99.99,,2013-03-19 00:32:00,
2013-03-18 18:42:00,35.0,17.0,-100.00,SSE,165,1.0,3.0,48,0.00,,,-99.99,,2013-03-19 00:42:00,
2013-03-18 18:52:00,35.0,18.0,-100.00,South,179,1.0,5.0,49,0.00,,,-99.99,,2013-03-19 00:52:00,
2013-03-18 19:02:00,35.0,18.0,-100.00,South,179,1.0,5.0,49,0.00,,,-99.99,,2013-03-19 01:02:00,
2013-03-18 19:11:00,35.0,17.0,-100.00,West,274,2.0,4.0,47,0.00,,,-99.99,,2013-03-19 01:11:00,
2013-03-18 19:22:00,35.0,17.0,-100.00,West,274,2.0,4.0,47,0.00,,,-99.99,,2013-03-19 01:22:00,
2013-03-18 19:32:00,35.0,17.0,-100.00,West,274,2.0,4.0,47,0.00,,,-99.99,,2013-03-19 01:32:00,
2013-03-18 19:42:00,34.0,18.0,-100.00,NNW,335,1.0,2.0,51,0.00,,,-99.99,,2013-03-19 01:42:00,
2013-03-18 19:52:00,33.0,18.0,-100.00,WNW,301,1.0,3.0,52,0.00,,,-99.99,,2013-03-19 01:52:00,
2013-03-18 20:02:00,33.0,18.0,-100.00,WNW,301,1.0,3.0,52,0.00,,,-99.99,,2013-03-19 02:02:00,
2013-03-18 20:12:00,33.0,17.0,-100.00,SE,138,2.0,4.0,52,0.00,,,-99.99,,2013-03-19 02:12:00,
2013-03-18 20:22:00,32.0,17.0,-100.00,ESE,123,2.0,4.0,55,0.00,,,-99.99,,2013-03-19 02:22:00,
2013-03-18 20:32:00,32.0,17.0,-100.00,ESE,123,2.0,4.0,55,0.00,,,-99.99,,2013-03-19 02:32:00,
2013-03-18 20:42:00,31.0,17.0,-100.00,ESE,116,5.0,6.0,56,0.00,,,-99.99,,2013-03-19 02:42:00,
2013-03-18 20:52:00,31.0,17.0,-100.00,ESE,119,5.0,8.0,56,0.00,,,-99.99,,2013-03-19 02:52:00,
2013-03-18 21:01:00,31.0,17.0,-100.00,ESE,119,5.0,8.0,56,0.00,,,-99.99,,2013-03-19 03:01:00,
2013-03-18 21:11:00,31.0,17.0,-100.00,East,96,3.0,4.0,56,0.00,,,-99.99,,2013-03-19 03:11:00,
2013-03-18 21:22:00,30.0,18.0,-100.00,North,0,2.0,3.0,59,0.00,,,-99.99,,2013-03-19 03:22:00,
2013-03-18 21:32:00,30.0,18.0,-100.00,North,0,2.0,3.0,59,0.00,,,-99.99,,2013-03-19 03:32:00,
2013-03-18 21:42:00,29.0,16.0,-100.00,ESE,110,2.0,3.0,56,0.00,,,-99.99,,2013-03-19 03:42:00,
2013-03-18 21:53:00,29.0,16.0,-100.00,ESE,110,2.0,3.0,56,0.00,,,-99.99,,2013-03-19 03:53:00,
2013-03-18 22:02:00,29.0,16.0,-100.00,ESE,110,2.0,3.0,56,0.00,,,-99.99,,2013-03-19 04:02:00,
2013-03-18 22:13:00,28.0,15.0,-100.00,ESE,106,2.0,3.0,57,0.00,,,-99.99,,2013-03-19 04:13:00,
2013-03-18 22:22:00,28.0,16.0,-100.00,ENE,72,2.0,3.0,61,0.00,,,-99.99,,2013-03-19 04:22:00,
2013-03-18 22:33:00,28.0,16.0,-100.00,ENE,72,2.0,3.0,61,0.00,,,-99.99,,2013-03-19 04:33:00,
2013-03-18 22:42:00,31.0,13.0,-100.00,ENE,68,2.0,3.0,47,0.00,,,-99.99,,2013-03-19 04:42:00,
2013-03-18 22:52:00,29.0,14.0,-100.00,NE,52,2.0,2.0,53,0.00,,,-99.99,,2013-03-19 04:52:00,
2013-03-18 23:02:00,29.0,14.0,-100.00,NE,52,2.0,2.0,53,0.00,,,-99.99,,2013-03-19 05:02:00,
2013-03-18 23:11:00,28.0,15.0,-100.00,ESE,110,3.0,4.0,57,0.00,,,-99.99,,2013-03-19 05:11:00,
2013-03-18 23:22:00,28.0,15.0,-100.00,ESE,110,3.0,4.0,57,0.00,,,-99.99,,2013-03-19 05:22:00,
2013-03-18 23:32:00,28.0,15.0,-100.00,ESE,110,3.0,4.0,57,0.00,,,-99.99,,2013-03-19 05:32:00,
2013-03-18 23:42:00,31.0,14.0,-100.00,WNW,296,2.0,3.0,49,0.00,,,-99.99,,2013-03-19 05:42:00,
2013-03-18 23:52:00,30.0,13.0,-100.00,SW,217,0.0,2.0,50,0.00,,,-99.99,,2013-03-19 05:52:00,